Rodeiro, Brazil
Current Conditions -  °F | °C
As of 6:00 PM on Thursday 18 Dec 2014 (Local Time) from SBBQ Reporting Station
Few Clouds Few Clouds  
Wind Chill: 77°   Ceiling: Unl
Heat Index: 79°   Visibility: 6mi
Dew Point: 63°   Wind: 7mph
Humidity: 61%   Direction: 40°NE
Pressure: 29.97"   Gusts: NA
Location:  21.2°S, 42.86°W
Report Text: SBBQ 182000Z 04006KT 9999 FEW040 FEW045TCU 25/17 Q1015
Loading
Personal Weather Stations






























Interactive Weather Map New forecast layout! Learn more

10-Day Weather Forecast

Advertisements
Track Severe Weather on mobile